Weather at Pina Airport

Public forecast

Using degrees Celsius for public forecast. Weather courtesy of forecast.io.

Closest aviation weather report (METAR) to Pina Airport

Closest report is Jardines Del Rey Airport, 33.5 nm (62.0 km) NE. Retrieved 2021/06/25 02:50 UTC (1 hour ago):

MUCC 250250Z 10009KT 060V130 9000 FEW020 28/24 Q1017

Closest aviation forecast (TAF) to Pina Airport

Closest forecast is Jardines Del Rey Airport, 33.5 nm (62.0 km) NE. Retrieved 2021-06-25 00:03 UTC (4 hours ago):

TAF MUCC 242300Z 2500/2524 08010KT 9000 SCT020